Time;durP1;ratioP1;P1;durP2;ratioP2;P2;SDS_P1;SDS_P2;PMS_P1;PMS_P2;Temp;Humidity;BMP_temperature;BMP_pressure;BME280_temperature;BME280_humidity;BME280_pressure;Samples;Min_cycle;Max_cycle;Signal;HPM_P1;HPM_P2
2021/12/16 00:01:47;;;;;;;29.25;14.18;;;;;;;;;;5017657;28;20554;-78
2021/12/16 00:07:21;;;;;;;27.52;13.57;;;;;;;;;;5017571;28;20057;-77
2021/12/16 00:09:56;;;;;;;28.40;13.60;;;;;;;;;;5017958;28;20050;-77
2021/12/16 00:29:22;;;;;;;26.30;12.23;;;;;;;;;;5016851;28;20460;-78
2021/12/16 00:31:55;;;;;;;24.35;11.80;;;;;;;;;;5016828;28;20054;-78
2021/12/16 00:34:26;;;;;;;23.98;12.52;;;;;;;;;;5017896;28;20517;-78
2021/12/16 00:36:55;;;;;;;23.40;11.15;;;;;;;;;;5017625;28;20084;-77
2021/12/16 00:39:25;;;;;;;24.48;12.45;;;;;;;;;;5017464;28;20053;-78
2021/12/16 00:41:58;;;;;;;22.50;11.43;;;;;;;;;;5017107;28;20050;-78
2021/12/16 00:44:50;;;;;;;22.60;11.35;;;;;;;;;;5017266;28;20056;-77
2021/12/16 00:47:34;;;;;;;23.15;10.68;;;;;;;;;;5016390;28;20453;-77
2021/12/16 00:50:19;;;;;;;26.10;11.80;;;;;;;;;;5015390;28;20053;-77
2021/12/16 00:55:42;;;;;;;28.60;13.60;;;;;;;;;;5016836;28;20057;-78
2021/12/16 00:58:09;;;;;;;27.73;13.27;;;;;;;;;;5015583;28;20073;-77
2021/12/16 01:00:36;;;;;;;28.23;12.77;;;;;;;;;;5016278;28;20046;-77
2021/12/16 01:03:16;;;;;;;26.55;12.73;;;;;;;;;;5016971;28;20053;-78
2021/12/16 01:08:52;;;;;;;27.00;12.15;;;;;;;;;;4992959;28;20056;-78
2021/12/16 01:36:49;;;;;;;28.60;13.35;;;;;;;;;;5012614;28;20050;-77
2021/12/16 01:42:36;;;;;;;34.20;14.73;;;;;;;;;;5146519;27;20932;-60
2021/12/16 01:48:37;;;;;;;36.13;16.55;;;;;;;;;;5130574;28;20054;-61
2021/12/16 01:51:01;;;;;;;34.83;15.75;;;;;;;;;;5130125;28;20419;-61
2021/12/16 01:53:53;;;;;;;32.83;14.93;;;;;;;;;;5130255;28;20142;-61
2021/12/16 01:56:34;;;;;;;32.95;13.90;;;;;;;;;;5130634;28;20495;-60
2021/12/16 01:59:04;;;;;;;30.45;14.57;;;;;;;;;;5129912;28;20047;-60
2021/12/16 02:01:34;;;;;;;33.30;14.80;;;;;;;;;;5129997;28;20142;-60
2021/12/16 02:04:10;;;;;;;33.25;15.70;;;;;;;;;;5130012;28;20065;-62
2021/12/16 02:06:47;;;;;;;32.35;14.15;;;;;;;;;;5130114;28;20062;-62
2021/12/16 02:09:23;;;;;;;30.90;14.30;;;;;;;;;;5130074;28;20514;-61
2021/12/16 02:11:57;;;;;;;34.08;15.43;;;;;;;;;;5129841;28;20054;-61
2021/12/16 02:28:34;;;;;;;31.45;15.15;;;;;;;;;;5129610;28;20475;-61
2021/12/16 02:31:27;;;;;;;33.75;14.90;;;;;;;;;;5129474;28;20090;-61
2021/12/16 02:36:42;;;;;;;37.30;15.82;;;;;;;;;;5129723;28;20424;-57
2021/12/16 02:39:11;;;;;;;;;;;;;;;;;;5129651;28;20055;-60
2021/12/16 02:41:41;;;;;;;33.72;13.90;;;;;;;;;;5129213;28;19926;-58
2021/12/16 02:44:20;;;;;;;35.35;15.20;;;;;;;;;;5129714;28;20408;-58
2021/12/16 02:49:39;;;;;;;33.75;14.55;;;;;;;;;;5129156;28;20084;-57
2021/12/16 02:52:07;;;;;;;35.42;15.38;;;;;;;;;;5124335;28;20058;-60
2021/12/16 02:54:35;;;;;;;35.30;15.40;;;;;;;;;;5115647;28;20134;-60
2021/12/16 02:57:03;;;;;;;32.83;15.57;;;;;;;;;;5115437;28;20070;-59
2021/12/16 02:59:31;;;;;;;38.15;15.20;;;;;;;;;;5115198;28;20058;-60
2021/12/16 03:02:05;;;;;;;37.47;16.27;;;;;;;;;;5115298;28;20461;-60
2021/12/16 03:04:33;;;;;;;36.72;16.65;;;;;;;;;;5115539;28;20055;-58
2021/12/16 03:07:01;;;;;;;35.65;16.80;;;;;;;;;;5115381;28;20415;-60
2021/12/16 03:12:42;;;;;;;40.38;17.45;;;;;;;;;;5114007;28;20055;-59
2021/12/16 03:15:20;;;;;;;44.47;17.88;;;;;;;;;;5115492;28;20048;-60
2021/12/16 03:17:55;;;;;;;41.92;17.95;;;;;;;;;;5115188;28;20047;-60
2021/12/16 03:20:32;;;;;;;41.92;20.05;;;;;;;;;;5115128;28;20052;-62
2021/12/16 03:23:14;;;;;;;43.20;19.13;;;;;;;;;;5113541;22;20101;-65
2021/12/16 03:25:54;;;;;;;40.03;18.73;;;;;;;;;;5074606;28;20109;-66
2021/12/16 03:28:40;;;;;;;40.13;18.88;;;;;;;;;;5074123;28;20106;-65
2021/12/16 03:31:26;;;;;;;42.90;19.05;;;;;;;;;;5074229;28;20091;-65
2021/12/16 03:37:01;;;;;;;42.17;18.23;;;;;;;;;;5052695;28;20056;-66
2021/12/16 03:39:33;;;;;;;41.67;18.83;;;;;;;;;;5054113;28;20049;-67
2021/12/16 03:42:00;;;;;;;40.25;18.58;;;;;;;;;;5053548;28;20049;-66
2021/12/16 03:44:38;;;;;;;38.47;18.10;;;;;;;;;;5053658;28;20049;-64
2021/12/16 03:47:05;;;;;;;34.70;16.83;;;;;;;;;;5053866;28;20049;-66
2021/12/16 03:49:34;;;;;;;34.50;16.02;;;;;;;;;;5053624;28;20049;-67
2021/12/16 03:52:06;;;;;;;39.33;17.85;;;;;;;;;;5053405;28;20521;-66
2021/12/16 03:54:37;;;;;;;37.03;17.33;;;;;;;;;;5053592;28;20053;-65
2021/12/16 03:57:07;;;;;;;;;;;;;;;;;;5054527;28;20516;-64
2021/12/16 03:59:38;;;;;;;33.08;14.20;;;;;;;;;;5053277;28;19921;-64
2021/12/16 04:02:10;;;;;;;36.83;16.58;;;;;;;;;;5053107;28;20060;-64
2021/12/16 04:04:37;;;;;;;34.15;16.10;;;;;;;;;;5052212;28;20068;-66
2021/12/16 04:07:06;;;;;;;34.45;15.63;;;;;;;;;;5053235;28;20048;-66
2021/12/16 04:09:34;;;;;;;36.78;15.48;;;;;;;;;;5053150;28;20045;-66
2021/12/16 04:12:08;;;;;;;34.72;14.20;;;;;;;;;;5053135;28;20090;-65
2021/12/16 04:14:37;;;;;;;29.77;12.50;;;;;;;;;;5053316;28;20052;-66
2021/12/16 04:17:10;;;;;;;28.65;11.93;;;;;;;;;;5053108;28;20494;-67
2021/12/16 04:19:38;;;;;;;28.20;11.73;;;;;;;;;;5052983;28;20417;-65
2021/12/16 04:22:10;;;;;;;24.17;10.48;;;;;;;;;;5052941;28;20437;-66
2021/12/16 04:24:37;;;;;;;29.25;12.45;;;;;;;;;;5053419;28;20361;-66
2021/12/16 04:27:06;;;;;;;25.30;10.73;;;;;;;;;;5053011;28;20045;-65
2021/12/16 04:29:33;;;;;;;28.27;11.93;;;;;;;;;;5052810;28;20045;-66
2021/12/16 04:32:02;;;;;;;26.65;11.85;;;;;;;;;;5052779;28;20048;-66
2021/12/16 04:34:29;;;;;;;26.50;11.80;;;;;;;;;;5052683;28;20052;-65
2021/12/16 04:36:57;;;;;;;26.13;11.15;;;;;;;;;;5052530;28;20060;-65
2021/12/16 04:39:26;;;;;;;25.35;10.93;;;;;;;;;;5052296;28;20069;-64
2021/12/16 04:41:55;;;;;;;25.30;10.70;;;;;;;;;;5052495;28;20045;-65
2021/12/16 04:44:24;;;;;;;24.40;10.02;;;;;;;;;;5052752;28;20098;-66
2021/12/16 04:46:51;;;;;;;25.00;10.10;;;;;;;;;;5052628;28;20045;-67
2021/12/16 04:49:20;;;;;;;25.33;11.00;;;;;;;;;;5052388;28;20103;-66
2021/12/16 04:51:50;;;;;;;23.17;9.93;;;;;;;;;;5052309;28;20049;-66
2021/12/16 04:54:18;;;;;;;23.77;10.25;;;;;;;;;;5052734;28;20049;-66
2021/12/16 04:56:47;;;;;;;23.13;9.75;;;;;;;;;;5052192;28;20045;-66
2021/12/16 04:59:16;;;;;;;22.02;9.20;;;;;;;;;;5052188;28;20066;-67
2021/12/16 05:01:46;;;;;;;23.50;10.57;;;;;;;;;;5052075;28;20061;-67
2021/12/16 05:04:13;;;;;;;23.65;9.95;;;;;;;;;;5052306;28;20115;-66
2021/12/16 05:06:42;;;;;;;20.50;9.07;;;;;;;;;;5052240;28;20045;-66
2021/12/16 05:09:13;;;;;;;22.90;9.50;;;;;;;;;;5052074;28;20045;-67
2021/12/16 05:11:40;;;;;;;20.92;9.57;;;;;;;;;;5051900;28;20068;-66
2021/12/16 05:14:08;;;;;;;22.40;9.15;;;;;;;;;;5052033;28;20059;-66
2021/12/16 05:16:35;;;;;;;21.77;9.13;;;;;;;;;;5052165;28;20049;-67
2021/12/16 05:19:02;;;;;;;22.00;9.27;;;;;;;;;;5052120;28;20049;-67
2021/12/16 05:21:45;;;;;;;19.52;8.43;;;;;;;;;;5051709;28;20065;-64
2021/12/16 05:24:16;;;;;;;19.10;7.28;;;;;;;;;;5052049;28;20493;-67
2021/12/16 05:26:44;;;;;;;21.00;8.50;;;;;;;;;;5053328;28;20460;-66
2021/12/16 05:29:12;;;;;;;20.63;9.07;;;;;;;;;;5052617;28;20055;-66
2021/12/16 05:31:40;;;;;;;22.88;9.38;;;;;;;;;;5053236;28;20044;-65
2021/12/16 05:34:08;;;;;;;24.48;9.82;;;;;;;;;;5052154;28;20049;-65
2021/12/16 05:36:36;;;;;;;21.33;10.52;;;;;;;;;;5052365;28;20056;-65
2021/12/16 05:39:04;;;;;;;21.98;9.82;;;;;;;;;;5051655;28;20045;-65
2021/12/16 05:41:33;;;;;;;25.77;10.02;;;;;;;;;;5051750;28;20128;-65
2021/12/16 05:44:00;;;;;;;23.23;9.73;;;;;;;;;;5052243;28;20416;-65
2021/12/16 05:46:27;;;;;;;22.58;10.20;;;;;;;;;;5051968;28;20128;-65
2021/12/16 05:48:56;;;;;;;24.80;10.88;;;;;;;;;;5052239;28;20438;-66
2021/12/16 05:51:26;;;;;;;24.48;10.07;;;;;;;;;;5052384;28;20055;-65
2021/12/16 05:53:54;;;;;;;26.40;10.90;;;;;;;;;;5051755;28;20057;-65
2021/12/16 05:56:22;;;;;;;27.83;10.15;;;;;;;;;;5052051;28;20635;-65
2021/12/16 05:58:50;;;;;;;22.88;10.45;;;;;;;;;;5051858;28;20048;-65
2021/12/16 06:01:21;;;;;;;27.75;11.60;;;;;;;;;;5052000;28;20059;-65
2021/12/16 06:03:49;;;;;;;26.67;11.15;;;;;;;;;;5051975;28;20044;-65
2021/12/16 06:06:16;;;;;;;26.30;9.82;;;;;;;;;;5052119;28;20387;-65
2021/12/16 06:08:45;;;;;;;22.52;9.82;;;;;;;;;;5051805;28;20049;-66
2021/12/16 06:11:19;;;;;;;24.65;10.52;;;;;;;;;;5052344;28;20508;-65
2021/12/16 06:14:00;;;;;;;25.58;10.10;;;;;;;;;;5052132;28;20056;-65
2021/12/16 06:27:28;;;;;;;23.02;9.40;;;;;;;;;;5052690;28;20095;-65
2021/12/16 06:29:58;;;;;;;24.38;9.98;;;;;;;;;;5055557;28;20056;-65
2021/12/16 06:32:26;;;;;;;25.40;11.35;;;;;;;;;;5055597;28;20045;-65
2021/12/16 06:34:54;;;;;;;25.88;10.25;;;;;;;;;;5055561;28;20048;-65
2021/12/16 06:37:22;;;;;;;22.95;10.00;;;;;;;;;;5055325;28;20051;-65
2021/12/16 06:39:49;;;;;;;23.65;10.27;;;;;;;;;;5055351;28;20048;-65
2021/12/16 06:42:16;;;;;;;27.90;11.27;;;;;;;;;;5055170;28;20060;-65
2021/12/16 06:44:47;;;;;;;28.13;12.32;;;;;;;;;;5055149;28;20128;-65
2021/12/16 06:47:20;;;;;;;;;;;;;;;;;;5055721;28;20521;-64
2021/12/16 06:49:51;;;;;;;23.33;9.10;;;;;;;;;;5055131;28;19921;-64
2021/12/16 06:52:23;;;;;;;23.23;9.50;;;;;;;;;;5055057;28;20045;-64
2021/12/16 06:55:04;;;;;;;22.38;9.27;;;;;;;;;;5055170;28;20143;-65
2021/12/16 06:57:40;;;;;;;25.80;8.80;;;;;;;;;;5054453;28;20085;-64
2021/12/16 07:00:14;;;;;;;23.38;9.30;;;;;;;;;;5054906;28;20053;-64
2021/12/16 07:02:55;;;;;;;22.20;8.90;;;;;;;;;;5055128;28;20490;-66
2021/12/16 07:05:23;;;;;;;;;;;;;;;;;;5055643;28;20111;-66
2021/12/16 07:07:51;;;;;;;17.23;7.80;;;;;;;;;;5054316;28;20031;-66
2021/12/16 07:10:20;;;;;;;14.93;6.57;;;;;;;;;;5054674;28;20045;-66
2021/12/16 07:12:49;;;;;;;15.93;6.88;;;;;;;;;;5054667;28;20052;-66
2021/12/16 07:15:22;;;;;;;19.50;7.85;;;;;;;;;;5054518;28;20057;-66
2021/12/16 07:17:51;;;;;;;16.38;6.57;;;;;;;;;;5054556;28;20056;-66
2021/12/16 07:20:22;;;;;;;17.40;7.30;;;;;;;;;;5054427;28;20044;-65
2021/12/16 07:22:49;;;;;;;17.73;7.10;;;;;;;;;;5053808;28;20053;-65
2021/12/16 07:25:16;;;;;;;16.42;6.97;;;;;;;;;;5053911;28;20041;-65
2021/12/16 07:27:44;;;;;;;13.75;5.07;;;;;;;;;;5053973;28;20056;-65
2021/12/16 07:30:14;;;;;;;11.48;5.30;;;;;;;;;;5054018;28;20056;-65
2021/12/16 07:32:41;;;;;;;11.48;4.20;;;;;;;;;;5054277;28;20501;-66
2021/12/16 07:35:15;;;;;;;9.15;4.30;;;;;;;;;;5053924;28;20063;-64
2021/12/16 07:37:43;;;;;;;24.27;12.70;;;;;;;;;;5053952;28;20059;-67
2021/12/16 07:40:14;;;;;;;17.38;7.03;;;;;;;;;;5053911;28;20045;-65
2021/12/16 07:42:48;;;;;;;14.88;6.40;;;;;;;;;;5054796;28;20076;-67
2021/12/16 07:45:19;;;;;;;11.50;4.93;;;;;;;;;;5054455;28;20135;-64
2021/12/16 07:47:48;;;;;;;13.10;5.72;;;;;;;;;;5053583;28;20414;-65
2021/12/16 07:50:16;;;;;;;13.15;4.63;;;;;;;;;;5053711;28;20045;-65
2021/12/16 07:52:43;;;;;;;13.80;5.88;;;;;;;;;;5053576;28;20049;-65
2021/12/16 07:55:12;;;;;;;10.10;4.82;;;;;;;;;;5053512;28;20156;-65
2021/12/16 07:57:40;;;;;;;13.45;5.68;;;;;;;;;;5053532;28;20045;-66
2021/12/16 08:00:13;;;;;;;12.60;5.43;;;;;;;;;;5053428;28;20053;-66
2021/12/16 08:02:40;;;;;;;13.05;6.10;;;;;;;;;;5053654;28;20524;-65
2021/12/16 08:05:10;;;;;;;12.73;5.32;;;;;;;;;;5049752;28;20493;-66
2021/12/16 08:07:39;;;;;;;12.35;5.53;;;;;;;;;;5050813;28;20053;-68
2021/12/16 08:10:09;;;;;;;11.05;4.57;;;;;;;;;;5051142;28;20045;-66
2021/12/16 08:12:37;;;;;;;11.30;4.90;;;;;;;;;;5051741;28;20052;-65
2021/12/16 08:15:05;;;;;;;13.88;4.97;;;;;;;;;;5051319;28;20139;-65
2021/12/16 08:17:32;;;;;;;13.32;5.18;;;;;;;;;;5050968;28;20055;-67
2021/12/16 08:19:59;;;;;;;12.73;5.30;;;;;;;;;;5051197;28;20051;-66
2021/12/16 08:22:26;;;;;;;17.50;5.50;;;;;;;;;;5051114;28;20045;-66
2021/12/16 08:24:54;;;;;;;12.65;4.85;;;;;;;;;;5051012;28;20056;-67
2021/12/16 08:27:21;;;;;;;13.82;6.10;;;;;;;;;;5050615;28;20451;-65
2021/12/16 08:29:48;;;;;;;11.75;5.00;;;;;;;;;;5050772;28;20059;-65
2021/12/16 08:32:15;;;;;;;11.27;5.45;;;;;;;;;;5050895;28;20143;-65
2021/12/16 08:34:45;;;;;;;14.00;5.68;;;;;;;;;;5051198;28;20386;-65
2021/12/16 08:37:14;;;;;;;12.82;4.90;;;;;;;;;;5051132;28;20056;-65
2021/12/16 08:39:43;;;;;;;13.52;4.55;;;;;;;;;;5050911;28;20061;-65
2021/12/16 08:42:13;;;;;;;8.68;3.70;;;;;;;;;;5050721;28;20060;-66
2021/12/16 08:44:40;;;;;;;8.90;3.33;;;;;;;;;;5050798;28;20148;-64
2021/12/16 08:47:10;;;;;;;9.48;4.32;;;;;;;;;;5050600;28;20053;-67
2021/12/16 08:49:38;;;;;;;8.38;4.00;;;;;;;;;;5049798;28;20045;-65
2021/12/16 08:52:12;;;;;;;11.00;4.70;;;;;;;;;;5049854;28;20048;-66
2021/12/16 08:54:40;;;;;;;10.52;3.85;;;;;;;;;;5050650;28;20147;-68
2021/12/16 08:57:07;;;;;;;8.80;4.30;;;;;;;;;;5050890;28;20418;-66
2021/12/16 08:59:36;;;;;;;10.25;5.05;;;;;;;;;;5050371;28;20072;-65
2021/12/16 09:02:05;;;;;;;11.65;5.05;;;;;;;;;;5050659;28;20517;-64
2021/12/16 09:04:32;;;;;;;12.07;5.60;;;;;;;;;;5050863;28;20057;-66
2021/12/16 09:07:01;;;;;;;10.40;4.97;;;;;;;;;;5050223;28;20531;-67
2021/12/16 09:09:32;;;;;;;13.23;5.65;;;;;;;;;;5049573;28;20090;-66
2021/12/16 09:12:08;;;;;;;;;;;;;;;;;;5050424;28;20052;-65
2021/12/16 09:14:39;;;;;;;12.43;5.10;;;;;;;;;;5050067;28;20301;-65
2021/12/16 09:17:10;;;;;;;14.57;5.93;;;;;;;;;;5049612;28;20505;-65
2021/12/16 09:19:38;;;;;;;10.32;4.82;;;;;;;;;;5050210;28;20052;-65
2021/12/16 09:22:05;;;;;;;11.77;4.90;;;;;;;;;;5049271;28;20049;-65
2021/12/16 09:24:32;;;;;;;12.70;5.07;;;;;;;;;;5049525;28;20057;-65
2021/12/16 09:26:59;;;;;;;12.02;5.43;;;;;;;;;;5049093;28;20043;-64
2021/12/16 09:29:27;;;;;;;12.25;5.43;;;;;;;;;;5048997;28;20045;-65
2021/12/16 09:31:55;;;;;;;13.68;6.00;;;;;;;;;;5049541;28;20052;-65
2021/12/16 09:34:22;;;;;;;15.18;7.40;;;;;;;;;;5049690;28;20051;-65
2021/12/16 09:36:49;;;;;;;11.25;4.82;;;;;;;;;;5061180;22;20051;-65
2021/12/16 09:39:21;;;;;;;12.43;5.30;;;;;;;;;;5049679;28;20044;-65
2021/12/16 09:41:51;;;;;;;15.25;6.25;;;;;;;;;;5049865;28;20053;-64
2021/12/16 09:44:19;;;;;;;15.82;6.55;;;;;;;;;;5049941;28;20494;-65
2021/12/16 09:46:48;;;;;;;14.10;6.68;;;;;;;;;;5049953;28;20060;-65
2021/12/16 09:49:17;;;;;;;17.80;8.13;;;;;;;;;;5050118;28;20532;-65
2021/12/16 09:51:46;;;;;;;17.00;7.65;;;;;;;;;;5049895;28;20276;-65
2021/12/16 09:54:24;;;;;;;17.40;8.90;;;;;;;;;;5049617;28;20060;-65
2021/12/16 09:56:52;;;;;;;16.33;7.53;;;;;;;;;;5049724;28;20059;-65
2021/12/16 09:59:21;;;;;;;20.00;8.80;;;;;;;;;;5049795;28;20055;-64
2021/12/16 10:01:51;;;;;;;16.10;7.88;;;;;;;;;;5049985;28;20402;-65
2021/12/16 10:04:23;;;;;;;18.33;8.48;;;;;;;;;;5053784;28;20045;-65
2021/12/16 10:06:53;;;;;;;16.60;8.10;;;;;;;;;;5053864;28;20584;-66
2021/12/16 10:09:21;;;;;;;15.05;6.93;;;;;;;;;;5053626;28;20053;-66
2021/12/16 10:11:50;;;;;;;15.30;7.43;;;;;;;;;;5053225;28;20044;-66
2021/12/16 10:14:32;;;;;;;14.68;7.18;;;;;;;;;;5053584;28;20507;-67
2021/12/16 10:19:47;;;;;;;14.05;7.20;;;;;;;;;;5053741;28;20125;-67
2021/12/16 10:22:20;;;;;;;19.77;8.85;;;;;;;;;;5053587;28;20067;-65
2021/12/16 10:24:48;;;;;;;18.70;8.10;;;;;;;;;;5053363;28;20135;-66
2021/12/16 10:27:18;;;;;;;16.88;8.48;;;;;;;;;;5053321;28;20048;-66
2021/12/16 10:29:47;;;;;;;16.42;6.68;;;;;;;;;;5053367;28;20049;-65
2021/12/16 10:32:37;;;;;;;14.80;7.88;;;;;;;;;;5053605;28;20411;-66
2021/12/16 10:35:10;;;;;;;15.40;7.53;;;;;;;;;;5053176;28;20049;-66
2021/12/16 10:37:40;;;;;;;16.60;8.52;;;;;;;;;;5053073;28;20059;-65
2021/12/16 10:40:27;;;;;;;15.80;7.53;;;;;;;;;;5053283;28;20048;-66
2021/12/16 10:42:54;;;;;;;15.98;6.82;;;;;;;;;;5052981;28;20045;-66
2021/12/16 10:45:31;;;;;;;15.70;7.55;;;;;;;;;;5053450;28;20086;-65
2021/12/16 10:48:15;;;;;;;15.02;6.65;;;;;;;;;;5052736;28;20132;-66
2021/12/16 10:51:06;;;;;;;17.45;7.47;;;;;;;;;;5052781;28;20048;-66
2021/12/16 10:53:57;;;;;;;13.77;6.53;;;;;;;;;;5052893;28;20055;-66
2021/12/16 10:56:27;;;;;;;;;;;;;;;;;;5032860;28;20053;-67
2021/12/16 10:58:56;;;;;;;14.32;5.63;;;;;;;;;;5032748;28;19943;-66
2021/12/16 11:01:39;;;;;;;13.93;6.80;;;;;;;;;;5032790;28;20132;-66
2021/12/16 11:04:09;;;;;;;12.65;5.93;;;;;;;;;;5032698;28;20128;-67
2021/12/16 11:06:40;;;;;;;12.87;6.10;;;;;;;;;;5032924;28;20404;-66
2021/12/16 11:09:31;;;;;;;;;;;;;;;;;;5033187;28;20137;-66
2021/12/16 11:12:18;;;;;;;11.63;5.85;;;;;;;;;;5032710;28;20012;-67
2021/12/16 11:14:48;;;;;;;11.32;4.88;;;;;;;;;;5031948;28;20060;-66
2021/12/16 11:17:18;;;;;;;12.03;5.53;;;;;;;;;;5036181;28;20072;-67
2021/12/16 11:19:49;;;;;;;10.67;5.20;;;;;;;;;;5052407;28;20282;-69
2021/12/16 11:22:21;;;;;;;12.38;5.95;;;;;;;;;;5033320;28;20485;-71
2021/12/16 11:24:48;;;;;;;12.90;6.22;;;;;;;;;;5035034;28;20136;-66
2021/12/16 11:27:25;;;;;;;12.20;5.97;;;;;;;;;;5040289;28;20058;-67
2021/12/16 11:29:52;;;;;;;12.88;6.32;;;;;;;;;;5052763;28;20623;-67
2021/12/16 11:32:42;;;;;;;14.90;7.15;;;;;;;;;;5053011;28;20136;-66
2021/12/16 11:35:33;;;;;;;9.05;4.65;;;;;;;;;;5053460;28;20053;-66
2021/12/16 11:38:03;;;;;;;;;;;;;;;;;;5053457;28;20088;-66
2021/12/16 11:40:50;;;;;;;14.32;7.47;;;;;;;;;;5052766;28;20381;-66
2021/12/16 11:43:18;;;;;;;12.27;6.13;;;;;;;;;;5051976;28;20052;-67
2021/12/16 11:45:45;;;;;;;12.75;6.50;;;;;;;;;;5052679;28;20051;-68
2021/12/16 11:48:29;;;;;;;12.95;6.22;;;;;;;;;;5053926;28;20055;-67
2021/12/16 11:51:05;;;;;;;12.13;6.55;;;;;;;;;;5046050;28;20559;-68
2021/12/16 11:53:38;;;;;;;11.95;6.15;;;;;;;;;;5040854;28;20053;-67
2021/12/16 11:56:05;;;;;;;12.68;5.93;;;;;;;;;;5040624;28;20483;-67
2021/12/16 11:58:33;;;;;;;12.20;5.10;;;;;;;;;;5041548;28;20047;-67
2021/12/16 12:01:10;;;;;;;12.85;6.32;;;;;;;;;;5041681;28;20056;-70
2021/12/16 12:03:37;;;;;;;10.88;5.72;;;;;;;;;;5041174;28;20757;-67
2021/12/16 12:06:04;;;;;;;12.77;5.55;;;;;;;;;;5040170;28;20469;-67
2021/12/16 12:08:32;;;;;;;11.13;5.38;;;;;;;;;;5041442;28;20056;-67
2021/12/16 12:11:06;;;;;;;13.52;6.18;;;;;;;;;;5040943;28;20045;-68
2021/12/16 12:13:37;;;;;;;12.23;5.45;;;;;;;;;;5038947;28;20056;-67
2021/12/16 12:16:07;;;;;;;10.70;5.10;;;;;;;;;;5031463;28;20482;-68
2021/12/16 12:18:38;;;;;;;10.43;5.18;;;;;;;;;;5033887;28;20511;-68
2021/12/16 12:21:29;;;;;;;10.05;4.82;;;;;;;;;;5034783;28;20447;-68
2021/12/16 12:24:04;;;;;;;12.48;6.20;;;;;;;;;;5041399;28;20056;-68
2021/12/16 12:26:35;;;;;;;11.43;5.30;;;;;;;;;;5039307;28;20504;-66
2021/12/16 12:29:07;;;;;;;12.15;5.80;;;;;;;;;;5033804;28;20415;-66
2021/12/16 12:31:37;;;;;;;9.30;5.07;;;;;;;;;;5030967;28;20172;-65
2021/12/16 12:34:04;;;;;;;11.70;6.68;;;;;;;;;;5031027;28;20132;-66
2021/12/16 12:36:32;;;;;;;12.98;5.93;;;;;;;;;;5035950;28;20052;-67
2021/12/16 12:39:02;;;;;;;16.58;8.02;;;;;;;;;;5038873;28;20049;-67
2021/12/16 12:41:29;;;;;;;20.67;10.55;;;;;;;;;;5040501;28;20048;-67
2021/12/16 12:43:58;;;;;;;13.45;6.47;;;;;;;;;;5041277;28;20049;-67
2021/12/16 12:46:26;;;;;;;11.07;5.03;;;;;;;;;;5040058;28;20049;-66
2021/12/16 12:48:55;;;;;;;9.35;4.70;;;;;;;;;;5039502;28;20490;-67
2021/12/16 12:51:32;;;;;;;8.70;4.68;;;;;;;;;;5039390;28;20052;-66
2021/12/16 12:53:59;;;;;;;10.07;4.93;;;;;;;;;;5039205;28;20054;-67
2021/12/16 12:56:32;;;;;;;13.85;7.60;;;;;;;;;;5040427;28;20441;-67
2021/12/16 12:59:04;;;;;;;11.20;5.53;;;;;;;;;;5048038;28;20174;-68
2021/12/16 13:01:41;;;;;;;11.80;6.10;;;;;;;;;;5030562;28;20509;-67
2021/12/16 13:04:16;;;;;;;9.68;5.43;;;;;;;;;;5035274;28;20052;-67
2021/12/16 13:07:05;;;;;;;10.98;5.28;;;;;;;;;;5050510;28;20051;-67
2021/12/16 13:09:37;;;;;;;9.30;5.18;;;;;;;;;;5041350;28;20124;-67
2021/12/16 13:12:25;;;;;;;11.65;5.45;;;;;;;;;;5038799;28;20049;-67
2021/12/16 13:15:04;;;;;;;10.00;5.22;;;;;;;;;;5037945;28;20073;-67
2021/12/16 13:23:29;;;;;;;9.52;4.32;;;;;;;;;;5045443;28;20059;-67
2021/12/16 13:29:01;;;;;;;9.30;4.57;;;;;;;;;;5035955;28;20501;-67
2021/12/16 13:31:38;;;;;;;10.55;4.72;;;;;;;;;;5039491;28;20049;-67
2021/12/16 13:34:06;;;;;;;9.82;4.97;;;;;;;;;;5039444;28;20047;-67
2021/12/16 13:36:41;;;;;;;9.98;4.50;;;;;;;;;;5041301;28;20606;-67
2021/12/16 13:39:11;;;;;;;9.50;4.38;;;;;;;;;;5050223;28;20053;-67
2021/12/16 13:41:54;;;;;;;10.80;5.00;;;;;;;;;;5049854;28;20421;-68
2021/12/16 13:44:38;;;;;;;9.93;5.63;;;;;;;;;;5050082;28;20110;-68
2021/12/16 13:47:15;;;;;;;11.07;5.30;;;;;;;;;;5050017;28;20144;-68
2021/12/16 14:01:39;;;;;;;9.48;5.85;;;;;;;;;;5038553;28;20503;-68
2021/12/16 14:04:40;;;;;;;10.85;5.72;;;;;;;;;;5037060;28;20553;-68
2021/12/16 14:10:04;;;;;;;13.77;7.47;;;;;;;;;;5036834;28;20050;-68
2021/12/16 14:15:23;;;;;;;13.27;6.93;;;;;;;;;;5017254;28;20084;-68
2021/12/16 14:17:55;;;;;;;13.77;7.65;;;;;;;;;;5039937;28;20137;-68
2021/12/16 14:23:27;;;;;;;12.02;5.90;;;;;;;;;;5040816;28;20075;-68
2021/12/16 14:26:20;;;;;;;11.55;6.15;;;;;;;;;;5043462;28;20052;-67
2021/12/16 14:37:23;;;;;;;13.23;7.13;;;;;;;;;;5049668;28;20053;-67
2021/12/16 14:40:12;;;;;;;13.93;6.90;;;;;;;;;;5050229;28;20053;-67
2021/12/16 14:42:47;;;;;;;11.82;6.38;;;;;;;;;;5050163;28;20524;-67
2021/12/16 14:45:34;;;;;;;13.38;6.43;;;;;;;;;;5050026;28;20144;-67
2021/12/16 14:50:55;;;;;;;13.20;6.95;;;;;;;;;;5053966;28;20596;-68
2021/12/16 14:53:30;;;;;;;11.55;5.53;;;;;;;;;;5053228;28;20152;-66
2021/12/16 14:56:02;;;;;;;12.63;6.43;;;;;;;;;;5053903;28;20052;-67
2021/12/16 14:58:29;;;;;;;11.38;5.75;;;;;;;;;;5053517;28;20060;-67
2021/12/16 15:00:59;;;;;;;10.77;5.35;;;;;;;;;;5053368;28;20055;-67
2021/12/16 15:03:33;;;;;;;11.23;5.40;;;;;;;;;;5053559;28;20060;-67
2021/12/16 15:06:03;;;;;;;12.40;5.95;;;;;;;;;;5054088;28;20076;-68
2021/12/16 15:08:39;;;;;;;13.70;6.53;;;;;;;;;;5053566;28;20045;-66
2021/12/16 15:11:11;;;;;;;12.45;5.75;;;;;;;;;;5053438;28;20057;-67
2021/12/16 15:13:43;;;;;;;11.80;6.43;;;;;;;;;;5053643;28;20061;-67
2021/12/16 15:16:35;;;;;;;13.77;6.20;;;;;;;;;;5053266;28;20485;-67
2021/12/16 15:36:29;;;;;;;18.42;10.30;;;;;;;;;;5052671;28;20114;-67
2021/12/16 15:44:32;;;;;;;15.70;7.07;;;;;;;;;;5128546;28;20059;-65
2021/12/16 15:47:00;;;;;;;13.38;6.93;;;;;;;;;;5128972;27;20050;-65
2021/12/16 15:49:27;;;;;;;13.73;6.75;;;;;;;;;;5127785;27;20057;-65
2021/12/16 15:51:54;;;;;;;13.25;7.20;;;;;;;;;;5128424;27;20043;-65
2021/12/16 15:54:21;;;;;;;14.00;7.10;;;;;;;;;;5128469;27;20043;-65
2021/12/16 15:56:52;;;;;;;13.60;6.63;;;;;;;;;;5128519;27;20542;-65
2021/12/16 15:59:20;;;;;;;12.73;7.28;;;;;;;;;;5128202;27;20052;-64
2021/12/16 16:01:49;;;;;;;13.18;6.72;;;;;;;;;;5128042;27;21689;-64
2021/12/16 16:04:18;;;;;;;13.20;6.82;;;;;;;;;;5128170;27;20050;-65
2021/12/16 16:06:50;;;;;;;12.27;6.68;;;;;;;;;;5128099;27;20051;-65
2021/12/16 16:09:17;;;;;;;13.50;7.68;;;;;;;;;;5127830;27;20066;-66
2021/12/16 16:11:47;;;;;;;14.15;7.22;;;;;;;;;;5127689;27;20051;-65
2021/12/16 16:14:18;;;;;;;16.88;8.38;;;;;;;;;;5127976;27;20043;-65
2021/12/16 16:16:49;;;;;;;;;;;;;;;;;;5128258;27;20043;-64
2021/12/16 16:19:20;;;;;;;15.48;8.50;;;;;;;;;;5128208;27;19931;-66
2021/12/16 16:21:49;;;;;;;17.17;9.00;;;;;;;;;;5127396;27;20051;-65
2021/12/16 16:24:21;;;;;;;16.55;8.63;;;;;;;;;;5127806;27;20058;-65
2021/12/16 16:26:51;;;;;;;13.98;7.75;;;;;;;;;;5127732;27;20131;-65
2021/12/16 16:29:23;;;;;;;15.68;8.93;;;;;;;;;;5127321;27;20100;-65
2021/12/16 16:31:51;;;;;;;16.58;8.57;;;;;;;;;;5127445;27;20130;-64
2021/12/16 16:34:21;;;;;;;18.02;8.13;;;;;;;;;;5127586;27;20051;-64
2021/12/16 16:36:50;;;;;;;15.33;8.33;;;;;;;;;;5127427;27;20055;-64
2021/12/16 16:39:22;;;;;;;16.42;8.88;;;;;;;;;;5127388;27;20270;-65
2021/12/16 16:41:51;;;;;;;14.60;8.15;;;;;;;;;;5126658;27;20070;-65
2021/12/16 16:44:23;;;;;;;16.67;8.60;;;;;;;;;;5126927;27;20062;-65
2021/12/16 16:46:57;;;;;;;19.45;9.60;;;;;;;;;;5126531;27;20048;-65
2021/12/16 16:49:31;;;;;;;19.08;9.48;;;;;;;;;;5127681;27;20685;-66
2021/12/16 16:52:01;;;;;;;17.65;8.88;;;;;;;;;;5120597;28;20054;-66
2021/12/16 16:54:35;;;;;;;18.98;10.07;;;;;;;;;;5113605;28;20050;-67
2021/12/16 16:57:06;;;;;;;19.50;9.65;;;;;;;;;;5113390;28;20063;-66
2021/12/16 16:59:38;;;;;;;20.33;10.70;;;;;;;;;;5113405;28;20493;-66
2021/12/16 17:02:20;;;;;;;22.52;10.73;;;;;;;;;;5113190;28;20393;-66
2021/12/16 17:04:49;;;;;;;21.65;10.57;;;;;;;;;;5113424;28;20044;-66
2021/12/16 17:07:16;;;;;;;22.05;10.75;;;;;;;;;;5112357;28;20050;-66
2021/12/16 17:09:43;;;;;;;21.75;10.70;;;;;;;;;;5113039;28;20043;-66
2021/12/16 17:12:14;;;;;;;25.95;12.73;;;;;;;;;;5112965;28;20051;-64
2021/12/16 17:14:50;;;;;;;24.60;12.48;;;;;;;;;;5113043;28;20048;-65
2021/12/16 17:17:23;;;;;;;27.88;14.63;;;;;;;;;;5112903;28;20059;-64
2021/12/16 17:20:05;;;;;;;41.20;19.48;;;;;;;;;;5112965;28;20047;-65
2021/12/16 17:22:36;;;;;;;26.10;12.80;;;;;;;;;;5112572;28;20044;-65
2021/12/16 17:25:04;;;;;;;;;;;;;;;;;;5113352;28;20058;-65
2021/12/16 17:27:38;;;;;;;22.77;10.45;;;;;;;;;;5112811;28;20101;-66
2021/12/16 17:30:15;;;;;;;23.48;10.95;;;;;;;;;;5112940;28;20124;-66
2021/12/16 17:32:45;;;;;;;22.98;11.27;;;;;;;;;;5112609;28;20340;-64
2021/12/16 17:35:18;;;;;;;26.70;13.23;;;;;;;;;;5112721;28;20411;-67
2021/12/16 17:37:49;;;;;;;24.08;12.57;;;;;;;;;;5112440;28;20040;-66